Castelo do Piaui, Brazil
Current Conditions -  °F | °C
As of 7:00 PM on Sunday 23 Nov 2014 (Local Time) from SBTE Reporting Station
Clear Clear  
Wind Chill: 91°   Ceiling: Unl
Heat Index: 93°   Visibility: 6mi
Dew Point: 64°   Wind: 3mph
Humidity: 41%   Direction: 330°NNW
Pressure: 29.77"   Gusts: NA
Location:  5.32°S, 41.55°W
Report Text: SBTE 232200Z 33003KT CAVOK 33/18 Q1008
Loading
Personal Weather Stations






























Interactive Weather Map New forecast layout! Learn more

10-Day Weather Forecast

Advertisements
Track Severe Weather on mobile